Bookmark and Share
Track history (hours):
 

Oceanographic research ship Skagerak (Sweden)

Detailed information on ship capabilities available from University of Delaware's Ocean Information Center.

Last reported at 2014-Apr-20 15:34 UTC. Time now 2014-Apr-20 15:59 UTC.
Position N 57°41' E 011°39'.

Length 37 m; draft 3.8 m.

Type: Dredging. MMSI: 265280000.

NotesDate/timePositionNaut miles runAvg speedWind from/ knotsBaromVisibWave heightAir tempDewpointWater temp
2014-Apr-20 15:34N 57°41' E 011°39'0 0.0
2014-Apr-20 14:34N 57°41' E 011°39'0 0.0
2014-Apr-20 13:34N 57°41' E 011°39'0 0.0
2014-Apr-20 12:34N 57°41' E 011°39'0 0.0
2014-Apr-20 11:34N 57°41' E 011°39'0 0.0
2014-Apr-20 10:34N 57°41' E 011°39'0 0.0
2014-Apr-20 09:34N 57°41' E 011°39'0 0.0
2014-Apr-20 08:34N 57°41' E 011°39'0 0.0
2014-Apr-20 07:33N 57°41' E 011°39'0 0.0
2014-Apr-20 06:34N 57°41' E 011°39'0 0.0
2014-Apr-20 05:34N 57°41' E 011°39'0 0.0
2014-Apr-20 04:34N 57°41' E 011°39'0 0.0
2014-Apr-20 03:34N 57°41' E 011°39'0 0.0
2014-Apr-20 02:34N 57°41' E 011°39'0 0.0
2014-Apr-20 01:34N 57°41' E 011°39'0 0.0
2014-Apr-20 00:34N 57°41' E 011°39'0 0.0
2014-Apr-19 23:34N 57°41' E 011°39'0 0.0
2014-Apr-19 22:34N 57°41' E 011°39'0 0.0
2014-Apr-19 21:34N 57°41' E 011°39'0 0.0
2014-Apr-19 20:33N 57°41' E 011°39'0 0.0
2014-Apr-19 19:34N 57°41' E 011°39'0 0.0
2014-Apr-19 18:33N 57°41' E 011°39'0 0.0
2014-Apr-19 17:34N 57°41' E 011°39'0 0.0
2014-Apr-19 16:33N 57°41' E 011°39'0 0.0
2014-Apr-19 15:34N 57°41' E 011°39'0 0.0
2014-Apr-19 14:33N 57°41' E 011°39'0 0.0
2014-Apr-19 13:34N 57°41' E 011°39'0 0.0
2014-Apr-19 12:34N 57°41' E 011°39'0 0.0
2014-Apr-19 11:34N 57°41' E 011°39'0 0.0
2014-Apr-19 10:33N 57°41' E 011°39'0 0.0
2014-Apr-19 09:34N 57°41' E 011°39'0 0.0
2014-Apr-19 08:34N 57°41' E 011°39'0 0.0
2014-Apr-19 07:34N 57°41' E 011°39'0 0.0
2014-Apr-19 06:34N 57°41' E 011°39'0 0.0
2014-Apr-19 05:34N 57°41' E 011°39'0 0.0
2014-Apr-19 04:34N 57°41' E 011°39'0 0.0
2014-Apr-19 03:34N 57°41' E 011°39'0 0.0
2014-Apr-19 02:34N 57°41' E 011°39'0 0.0
2014-Apr-19 01:34N 57°41' E 011°39'0 0.0
2014-Apr-19 00:34N 57°41' E 011°39'0 0.0
2014-Apr-18 23:34N 57°41' E 011°39'0 0.0
2014-Apr-18 22:34N 57°41' E 011°39'0 0.0
2014-Apr-18 21:33N 57°41' E 011°39'0 0.0
2014-Apr-18 20:34N 57°41' E 011°39'0 0.0
2014-Apr-18 19:34N 57°41' E 011°39'0 0.0
2014-Apr-18 18:34N 57°41' E 011°39'0 0.0
2014-Apr-18 17:34N 57°41' E 011°39'0 0.0
2014-Apr-18 16:34N 57°41' E 011°39'0 0.0
2014-Apr-18 15:34N 57°41' E 011°39'0 0.0
2014-Apr-18 14:34N 57°41' E 011°39'0 0.0
2014-Apr-18 13:34N 57°41' E 011°39'0 0.0
2014-Apr-18 12:34N 57°41' E 011°39'0 0.0
2014-Apr-18 11:34N 57°41' E 011°39'0 0.0
2014-Apr-18 10:34N 57°41' E 011°39'0 0.0
2014-Apr-18 09:34N 57°41' E 011°39'0 0.0
2014-Apr-18 08:33N 57°41' E 011°39'0 0.0
2014-Apr-18 07:34N 57°41' E 011°39'0 0.0
2014-Apr-18 06:33N 57°41' E 011°39'0 0.0
2014-Apr-18 05:34N 57°41' E 011°39'0 0.0
2014-Apr-18 04:34N 57°41' E 011°39'0 0.0
2014-Apr-18 03:34N 57°41' E 011°39'0 0.0
2014-Apr-18 02:34N 57°41' E 011°39'0 0.0
2014-Apr-18 01:34N 57°41' E 011°39'0 0.0
2014-Apr-18 00:34N 57°41' E 011°39'0 0.0
2014-Apr-17 23:34N 57°41' E 011°39'0 0.0
2014-Apr-17 22:34N 57°41' E 011°39'0 0.0
2014-Apr-17 21:34N 57°41' E 011°39'0 0.0
2014-Apr-17 20:34N 57°41' E 011°39'0 0.0
2014-Apr-17 19:34N 57°41' E 011°39'0 0.0
2014-Apr-17 18:34N 57°41' E 011°39'0 0.0
2014-Apr-17 17:34N 57°41' E 011°39'0 0.0
2014-Apr-17 16:34N 57°41' E 011°39'0 0.0
2014-Apr-17 15:34N 57°41' E 011°39'0 0.0
2014-Apr-17 14:34N 57°41' E 011°39'5 4.6
2014-Apr-17 13:34N 57°41' E 011°47'3 3.3
2014-Apr-17 12:34N 57°41' E 011°54'6 6.0
2014-Apr-17 11:34N 57°39' E 011°43'2 1.9
2014-Apr-17 10:34N 57°41' E 011°45'3 3.0
2014-Apr-17 09:34N 57°41' E 011°51'1 1.0
2014-Apr-17 08:34N 57°41' E 011°52'2 2.0
2014-Apr-17 07:34N 57°42' E 011°56'2 1.5
2014-Apr-17 06:34N 57°43' E 011°58'3 3.1
2014-Apr-17 05:34N 57°41' E 011°54'0 0.0
2014-Apr-17 04:34N 57°41' E 011°54'0 0.0
2014-Apr-17 03:33N 57°41' E 011°54'0 0.0
2014-Apr-17 02:34N 57°41' E 011°54'0 0.0
2014-Apr-17 01:33N 57°41' E 011°54'0 0.0
2014-Apr-17 00:34N 57°41' E 011°54'0 0.0
2014-Apr-16 23:34N 57°41' E 011°54'0 0.0
2014-Apr-16 22:33N 57°41' E 011°54'0 0.0
2014-Apr-16 21:34N 57°41' E 011°54'0 0.0
2014-Apr-16 20:34N 57°41' E 011°54'0 0.0
2014-Apr-16 19:34N 57°41' E 011°54'0 0.0
2014-Apr-16 18:33N 57°41' E 011°54'0 0.0
2014-Apr-16 17:34N 57°41' E 011°54'0 0.0
2014-Apr-16 16:34N 57°41' E 011°54'0 0.0
2014-Apr-16 15:33N 57°41' E 011°54'5 4.7
2014-Apr-16 14:34N 57°39' E 011°45'8 8.4
2014-Apr-16 13:33N 57°38' E 011°30'6 5.9
2014-Apr-16 12:33N 57°39' E 011°41'3 3.0
2014-Apr-16 11:33N 57°41' E 011°45'2 2.4
2014-Apr-16 10:34N 57°41' E 011°49'0 0.0
2014-Apr-16 09:33N 57°41' E 011°49'2 2.0
2014-Apr-16 08:34N 57°41' E 011°53'3 2.7
2014-Apr-16 07:33N 57°43' E 011°57'1 0.9
2014-Apr-16 06:33N 57°42' E 011°56'2 1.6
2014-Apr-16 05:33N 57°41' E 011°54'0 0.0
2014-Apr-16 04:33N 57°41' E 011°54'0 0.0
2014-Apr-16 03:33N 57°41' E 011°54'0 0.0
2014-Apr-16 02:33N 57°41' E 011°54'0 0.0
2014-Apr-16 01:33N 57°41' E 011°54'0 0.0
2014-Apr-16 00:33N 57°41' E 011°54'0 0.0
2014-Apr-15 23:33N 57°41' E 011°54'0 0.0
2014-Apr-15 22:33N 57°41' E 011°54'0 0.0
2014-Apr-15 21:33N 57°41' E 011°54'0 0.0
2014-Apr-15 20:33N 57°41' E 011°54'0 0.0
2014-Apr-15 19:33N 57°41' E 011°54'0 0.0
2014-Apr-15 18:33N 57°41' E 011°54'0 0.0
2014-Apr-15 17:33N 57°41' E 011°54'0 0.0
2014-Apr-15 16:33N 57°41' E 011°54'0 0.0
2014-Apr-15 15:33N 57°41' E 011°54'9 8.7
2014-Apr-15 14:33N 57°38' E 011°38'3 1.3
2014-Apr-15 12:34N 57°38' E 011°34'4 4.0
2014-Apr-15 11:34N 57°39' E 011°41'3 2.9
2014-Apr-15 10:34N 57°41' E 011°45'2 2.2
2014-Apr-15 09:34N 57°41' E 011°49'2 2.1
2014-Apr-15 08:34N 57°41' E 011°53'2 1.6
2014-Apr-15 07:34N 57°42' E 011°56'2 2.1
2014-Apr-15 06:34N 57°43' E 011°59'2 2.0
2014-Apr-15 05:34N 57°42' E 011°56'10 5.2
2014-Apr-15 03:34N 57°40' E 011°37'1 1.5
2014-Apr-15 02:34N 57°41' E 011°39'0 0.0
2014-Apr-15 01:34N 57°41' E 011°39'0 0.0
2014-Apr-15 00:34N 57°41' E 011°39'0 0.0
2014-Apr-14 23:34N 57°41' E 011°39'0 0.0
2014-Apr-14 22:34N 57°41' E 011°39'0 0.0
2014-Apr-14 21:34N 57°41' E 011°39'0 0.0
2014-Apr-14 20:34N 57°41' E 011°39'0 0.0
2014-Apr-14 19:34N 57°41' E 011°39'0 0.0
2014-Apr-14 18:34N 57°41' E 011°39'0 0.0
2014-Apr-14 17:34N 57°41' E 011°39'0 0.0
2014-Apr-14 16:34N 57°41' E 011°39'0 0.0
2014-Apr-14 15:34N 57°41' E 011°39'0 0.0
2014-Apr-14 14:34N 57°41' E 011°39'0 0.0
2014-Apr-14 13:34N 57°41' E 011°39'0 0.0
2014-Apr-14 11:34N 57°41' E 011°39'0 0.0
2014-Apr-14 10:34N 57°41' E 011°39'0 0.0
2014-Apr-14 09:34N 57°41' E 011°39'0 0.0
2014-Apr-14 08:34N 57°41' E 011°39'0 0.0
2014-Apr-14 07:33N 57°41' E 011°39'0 0.0
2014-Apr-14 06:33N 57°41' E 011°39'0 0.0
2014-Apr-14 05:33N 57°41' E 011°39'0 0.0
2014-Apr-13 22:33N 57°41' E 011°39'0 0.0
2014-Apr-13 21:33N 57°41' E 011°39'0 0.0
2014-Apr-13 20:33N 57°41' E 011°39'0 0.0
2014-Apr-13 19:33N 57°41' E 011°39'0 0.0
2014-Apr-13 18:33N 57°41' E 011°39'0 0.0
2014-Apr-13 17:33N 57°41' E 011°39'0 0.0
2014-Apr-13 16:33N 57°41' E 011°39'0 0.0
2014-Apr-13 15:33N 57°41' E 011°39'0 0.0
2014-Apr-13 14:33N 57°41' E 011°39'0 0.0
2014-Apr-13 13:33N 57°41' E 011°39'0 0.0
2014-Apr-13 12:33N 57°41' E 011°39'0 0.0
2014-Apr-13 11:33N 57°41' E 011°39'0 0.0
2014-Apr-13 10:33N 57°41' E 011°39'0 0.0
2014-Apr-13 09:33N 57°41' E 011°39'0 0.0
2014-Apr-13 08:33N 57°41' E 011°39'0 0.0
2014-Apr-13 07:33N 57°41' E 011°39'0 0.0
2014-Apr-13 06:33N 57°41' E 011°39'0 0.0
2014-Apr-13 05:33N 57°41' E 011°39'0 0.0
2014-Apr-13 04:33N 57°41' E 011°39'0 0.0
2014-Apr-13 03:33N 57°41' E 011°39'0 0.0
2014-Apr-13 02:33N 57°41' E 011°39'0 0.0
2014-Apr-13 01:33N 57°41' E 011°39'0 0.0
2014-Apr-13 00:33N 57°41' E 011°39'0 0.0
2014-Apr-12 23:33N 57°41' E 011°39'0 0.0
2014-Apr-12 22:33N 57°41' E 011°39'0 0.0
2014-Apr-12 21:33N 57°41' E 011°39'0 0.0
2014-Apr-12 20:33N 57°41' E 011°39'0 0.0
2014-Apr-12 19:33N 57°41' E 011°39'0 0.0
2014-Apr-12 18:33N 57°41' E 011°39'0 0.0
2014-Apr-12 17:33N 57°41' E 011°39'0 0.0
2014-Apr-12 16:33N 57°41' E 011°39'0 0.0
2014-Apr-12 15:33N 57°41' E 011°39'0 0.0
2014-Apr-12 14:33N 57°41' E 011°39'0 0.0
2014-Apr-12 13:33N 57°41' E 011°39'0 0.0
2014-Apr-12 12:33N 57°41' E 011°39'0 0.0
2014-Apr-12 11:33N 57°41' E 011°39'0 0.0
2014-Apr-12 10:33N 57°41' E 011°39'0 0.0
2014-Apr-12 09:33N 57°41' E 011°39'0 0.0
2014-Apr-12 08:33N 57°41' E 011°39'0 0.0
2014-Apr-12 07:33N 57°41' E 011°39'0 0.0
2014-Apr-12 06:33N 57°41' E 011°39'0 0.0
2014-Apr-12 05:33N 57°41' E 011°39'0 0.0
2014-Apr-12 04:33N 57°41' E 011°39'0 0.0
2014-Apr-12 03:33N 57°41' E 011°39'0 0.0
2014-Apr-12 02:33N 57°41' E 011°39'0 0.0
2014-Apr-12 01:33N 57°41' E 011°39'0 0.0
2014-Apr-12 00:33N 57°41' E 011°39'0 0.0
2014-Apr-11 23:33N 57°41' E 011°39'0 0.0
2014-Apr-11 22:33N 57°41' E 011°39'0 0.0
2014-Apr-11 21:33N 57°41' E 011°39'0 0.0
2014-Apr-11 20:33N 57°41' E 011°39'0 0.0
2014-Apr-11 19:33N 57°41' E 011°39'0 0.0
2014-Apr-11 18:33N 57°41' E 011°39'0 0.0
2014-Apr-11 17:33N 57°41' E 011°39'0 0.0
2014-Apr-11 16:33N 57°41' E 011°39'0 0.0
2014-Apr-11 15:33N 57°41' E 011°39'0 0.0
2014-Apr-11 14:33N 57°41' E 011°39'10 9.6
2014-Apr-11 13:33N 57°49' E 011°28'1110.7
2014-Apr-11 12:33N 57°59' E 011°22'9 9.5
2014-Apr-11 11:33N 58°08' E 011°20'8 4.0
2014-Apr-11 09:33N 58°16' E 011°25'8 7.7
2014-Apr-11 08:31N 58°14' E 011°10'8 2.6
2014-Apr-11 05:32N 58°12' E 011°24'1010.2
2014-Apr-11 04:33N 58°03' E 011°20'1110.8
2014-Apr-11 03:33N 57°52' E 011°25'10 9.5
2014-Apr-11 02:33N 57°43' E 011°32'4 4.4
2014-Apr-11 01:33N 57°41' E 011°39'0 0.0
2014-Apr-11 00:33N 57°41' E 011°39'0 0.0
2014-Apr-10 23:33N 57°41' E 011°39'0 0.0
2014-Apr-10 22:33N 57°41' E 011°39'0 0.0
2014-Apr-10 21:33N 57°41' E 011°39'0 0.0
2014-Apr-10 20:33N 57°41' E 011°39'0 0.0
2014-Apr-10 19:33N 57°41' E 011°39'0 0.0
2014-Apr-10 18:33N 57°41' E 011°39'0 0.0
2014-Apr-10 17:33N 57°41' E 011°39'0 0.0
2014-Apr-10 16:33N 57°41' E 011°39'  

Dump ship's entire track history

sailing weather and tide predictions

Skagerak — SGCD — position and weather